sensor_id;sensor_type;location;lat;lon;timestamp;temperature;humidity
60234;DHT22;49514;43.538;-5.708;2022-08-25T00:01:35;22.40;99.90
60234;DHT22;49514;43.538;-5.708;2022-08-25T00:04:07;22.40;99.90
60234;DHT22;49514;43.538;-5.708;2022-08-25T00:06:37;22.40;99.90
60234;DHT22;49514;43.538;-5.708;2022-08-25T00:09:05;22.30;99.90
60234;DHT22;49514;43.538;-5.708;2022-08-25T00:11:34;22.40;99.90
60234;DHT22;49514;43.538;-5.708;2022-08-25T00:14:06;22.30;99.90
60234;DHT22;49514;43.538;-5.708;2022-08-25T00:16:33;22.30;99.90
60234;DHT22;49514;43.538;-5.708;2022-08-25T00:19:05;22.30;99.90
60234;DHT22;49514;43.538;-5.708;2022-08-25T00:21:32;22.40;99.90
60234;DHT22;49514;43.538;-5.708;2022-08-25T00:24:00;22.40;99.90
60234;DHT22;49514;43.538;-5.708;2022-08-25T00:26:30;22.40;99.90
60234;DHT22;49514;43.538;-5.708;2022-08-25T00:28:57;22.40;99.90
60234;DHT22;49514;43.538;-5.708;2022-08-25T00:31:24;22.50;99.90
60234;DHT22;49514;43.538;-5.708;2022-08-25T00:33:51;22.50;99.90
60234;DHT22;49514;43.538;-5.708;2022-08-25T00:36:18;22.50;99.90
60234;DHT22;49514;43.538;-5.708;2022-08-25T00:38:47;22.50;99.90
60234;DHT22;49514;43.538;-5.708;2022-08-25T00:41:18;22.60;99.90
60234;DHT22;49514;43.538;-5.708;2022-08-25T00:43:50;22.50;99.90
60234;DHT22;49514;43.538;-5.708;2022-08-25T00:46:24;22.50;99.90
60234;DHT22;49514;43.538;-5.708;2022-08-25T00:48:56;22.50;99.90
60234;DHT22;49514;43.538;-5.708;2022-08-25T00:51:36;22.60;99.90
60234;DHT22;49514;43.538;-5.708;2022-08-25T00:54:05;22.60;99.90
60234;DHT22;49514;43.538;-5.708;2022-08-25T00:56:32;22.60;99.90
60234;DHT22;49514;43.538;-5.708;2022-08-25T00:59:02;22.60;99.90
60234;DHT22;49514;43.538;-5.708;2022-08-25T01:01:29;22.60;99.90
60234;DHT22;49514;43.538;-5.708;2022-08-25T01:03:56;22.60;99.90
60234;DHT22;49514;43.538;-5.708;2022-08-25T01:06:22;22.60;99.90
60234;DHT22;49514;43.538;-5.708;2022-08-25T01:08:51;22.60;99.90
60234;DHT22;49514;43.538;-5.708;2022-08-25T01:11:18;22.60;99.90
60234;DHT22;49514;43.538;-5.708;2022-08-25T01:13:52;22.50;99.90
60234;DHT22;49514;43.538;-5.708;2022-08-25T01:16:20;22.60;99.90
60234;DHT22;49514;43.538;-5.708;2022-08-25T01:18:51;22.60;99.90
60234;DHT22;49514;43.538;-5.708;2022-08-25T01:21:21;22.50;99.90
60234;DHT22;49514;43.538;-5.708;2022-08-25T01:23:49;22.50;99.90
60234;DHT22;49514;43.538;-5.708;2022-08-25T01:26:22;22.50;99.90
60234;DHT22;49514;43.538;-5.708;2022-08-25T01:28:50;22.60;99.90
60234;DHT22;49514;43.538;-5.708;2022-08-25T01:31:37;22.50;99.90
60234;DHT22;49514;43.538;-5.708;2022-08-25T01:34:05;22.60;99.90
60234;DHT22;49514;43.538;-5.708;2022-08-25T01:36:33;22.60;99.90
60234;DHT22;49514;43.538;-5.708;2022-08-25T01:39:01;22.60;99.90
60234;DHT22;49514;43.538;-5.708;2022-08-25T01:43:55;22.60;99.90
60234;DHT22;49514;43.538;-5.708;2022-08-25T01:46:21;22.50;99.90
60234;DHT22;49514;43.538;-5.708;2022-08-25T01:48:48;22.50;99.90
60234;DHT22;49514;43.538;-5.708;2022-08-25T01:51:15;22.60;99.90
60234;DHT22;49514;43.538;-5.708;2022-08-25T01:53:44;22.60;99.90
60234;DHT22;49514;43.538;-5.708;2022-08-25T01:56:14;22.60;99.90
60234;DHT22;49514;43.538;-5.708;2022-08-25T01:58:46;22.60;99.90
60234;DHT22;49514;43.538;-5.708;2022-08-25T02:01:19;22.50;99.90
60234;DHT22;49514;43.538;-5.708;2022-08-25T02:03:48;22.50;99.90
60234;DHT22;49514;43.538;-5.708;2022-08-25T02:06:19;22.50;99.90
60234;DHT22;49514;43.538;-5.708;2022-08-25T02:08:54;22.50;99.90
60234;DHT22;49514;43.538;-5.708;2022-08-25T02:11:21;22.50;99.90
60234;DHT22;49514;43.538;-5.708;2022-08-25T02:13:49;22.50;99.90
60234;DHT22;49514;43.538;-5.708;2022-08-25T02:16:26;22.50;99.90
60234;DHT22;49514;43.538;-5.708;2022-08-25T02:18:54;22.50;99.90
60234;DHT22;49514;43.538;-5.708;2022-08-25T02:21:22;22.50;99.90
60234;DHT22;49514;43.538;-5.708;2022-08-25T02:23:49;22.40;99.90
60234;DHT22;49514;43.538;-5.708;2022-08-25T02:26:16;22.50;99.90
60234;DHT22;49514;43.538;-5.708;2022-08-25T02:28:45;22.50;99.90
60234;DHT22;49514;43.538;-5.708;2022-08-25T02:31:14;22.50;99.90
60234;DHT22;49514;43.538;-5.708;2022-08-25T02:33:40;22.50;99.90
60234;DHT22;49514;43.538;-5.708;2022-08-25T02:36:08;22.50;99.90
60234;DHT22;49514;43.538;-5.708;2022-08-25T02:38:35;22.50;99.90
60234;DHT22;49514;43.538;-5.708;2022-08-25T02:41:10;22.50;99.90
60234;DHT22;49514;43.538;-5.708;2022-08-25T02:43:39;22.50;99.90
60234;DHT22;49514;43.538;-5.708;2022-08-25T02:46:07;22.50;99.90
60234;DHT22;49514;43.538;-5.708;2022-08-25T02:48:34;22.50;99.90
60234;DHT22;49514;43.538;-5.708;2022-08-25T02:51:01;22.40;99.90
60234;DHT22;49514;43.538;-5.708;2022-08-25T02:53:28;22.40;99.90
60234;DHT22;49514;43.538;-5.708;2022-08-25T02:55:55;22.40;99.90
60234;DHT22;49514;43.538;-5.708;2022-08-25T02:58:22;22.40;99.90
60234;DHT22;49514;43.538;-5.708;2022-08-25T03:00:49;22.40;99.90
60234;DHT22;49514;43.538;-5.708;2022-08-25T03:03:16;22.30;99.90
60234;DHT22;49514;43.538;-5.708;2022-08-25T03:05:42;22.30;99.90
60234;DHT22;49514;43.538;-5.708;2022-08-25T03:08:09;22.30;99.90
60234;DHT22;49514;43.538;-5.708;2022-08-25T03:10:36;22.30;99.90
60234;DHT22;49514;43.538;-5.708;2022-08-25T03:13:03;22.30;99.90
60234;DHT22;49514;43.538;-5.708;2022-08-25T03:15:30;22.30;99.90
60234;DHT22;49514;43.538;-5.708;2022-08-25T03:17:57;22.30;99.90
60234;DHT22;49514;43.538;-5.708;2022-08-25T03:20:25;22.30;99.90
60234;DHT22;49514;43.538;-5.708;2022-08-25T03:22:53;22.30;99.90
60234;DHT22;49514;43.538;-5.708;2022-08-25T03:25:19;22.30;99.90
60234;DHT22;49514;43.538;-5.708;2022-08-25T03:28:06;22.30;99.90
60234;DHT22;49514;43.538;-5.708;2022-08-25T03:30:33;22.30;99.90
60234;DHT22;49514;43.538;-5.708;2022-08-25T03:33:00;22.30;99.90
60234;DHT22;49514;43.538;-5.708;2022-08-25T03:35:26;22.30;99.90
60234;DHT22;49514;43.538;-5.708;2022-08-25T03:37:57;22.30;99.90
60234;DHT22;49514;43.538;-5.708;2022-08-25T03:40:24;22.30;99.90
60234;DHT22;49514;43.538;-5.708;2022-08-25T03:42:52;22.30;99.90
60234;DHT22;49514;43.538;-5.708;2022-08-25T03:45:23;22.30;99.90
60234;DHT22;49514;43.538;-5.708;2022-08-25T03:47:51;22.30;99.90
60234;DHT22;49514;43.538;-5.708;2022-08-25T03:50:19;22.30;99.90
60234;DHT22;49514;43.538;-5.708;2022-08-25T03:52:53;22.30;99.90
60234;DHT22;49514;43.538;-5.708;2022-08-25T03:55:22;22.20;99.90
60234;DHT22;49514;43.538;-5.708;2022-08-25T03:57:51;22.20;99.90
60234;DHT22;49514;43.538;-5.708;2022-08-25T04:00:19;22.20;99.90
60234;DHT22;49514;43.538;-5.708;2022-08-25T04:02:46;22.20;99.90
60234;DHT22;49514;43.538;-5.708;2022-08-25T04:05:13;22.20;99.90
60234;DHT22;49514;43.538;-5.708;2022-08-25T04:07:40;22.30;99.90
60234;DHT22;49514;43.538;-5.708;2022-08-25T04:10:08;22.30;99.90
60234;DHT22;49514;43.538;-5.708;2022-08-25T04:12:36;22.30;99.90
60234;DHT22;49514;43.538;-5.708;2022-08-25T04:15:08;22.20;99.90
60234;DHT22;49514;43.538;-5.708;2022-08-25T04:17:39;22.30;99.90
60234;DHT22;49514;43.538;-5.708;2022-08-25T04:20:08;22.30;99.90
60234;DHT22;49514;43.538;-5.708;2022-08-25T04:22:36;22.30;99.90
60234;DHT22;49514;43.538;-5.708;2022-08-25T04:25:05;22.30;99.90
60234;DHT22;49514;43.538;-5.708;2022-08-25T04:27:32;22.30;99.90
60234;DHT22;49514;43.538;-5.708;2022-08-25T04:29:59;22.30;99.90
60234;DHT22;49514;43.538;-5.708;2022-08-25T04:32:25;22.30;99.90
60234;DHT22;49514;43.538;-5.708;2022-08-25T04:34:52;22.30;99.90
60234;DHT22;49514;43.538;-5.708;2022-08-25T04:37:19;22.30;99.90
60234;DHT22;49514;43.538;-5.708;2022-08-25T04:39:46;22.30;99.90
60234;DHT22;49514;43.538;-5.708;2022-08-25T04:42:13;22.30;99.90
60234;DHT22;49514;43.538;-5.708;2022-08-25T04:44:39;22.30;99.90
60234;DHT22;49514;43.538;-5.708;2022-08-25T04:47:07;22.20;99.90
60234;DHT22;49514;43.538;-5.708;2022-08-25T04:49:34;22.30;99.90
60234;DHT22;49514;43.538;-5.708;2022-08-25T04:52:02;22.20;99.90
60234;DHT22;49514;43.538;-5.708;2022-08-25T04:54:29;22.20;99.90
60234;DHT22;49514;43.538;-5.708;2022-08-25T04:56:56;22.20;99.90
60234;DHT22;49514;43.538;-5.708;2022-08-25T04:59:22;22.10;99.90
60234;DHT22;49514;43.538;-5.708;2022-08-25T05:01:49;22.20;99.90
60234;DHT22;49514;43.538;-5.708;2022-08-25T05:04:19;22.10;99.90
60234;DHT22;49514;43.538;-5.708;2022-08-25T05:06:46;22.10;99.90
60234;DHT22;49514;43.538;-5.708;2022-08-25T05:09:13;22.10;99.90
60234;DHT22;49514;43.538;-5.708;2022-08-25T05:11:40;22.20;99.90
60234;DHT22;49514;43.538;-5.708;2022-08-25T05:14:07;22.20;99.90
60234;DHT22;49514;43.538;-5.708;2022-08-25T05:16:38;22.10;99.90
60234;DHT22;49514;43.538;-5.708;2022-08-25T05:19:05;22.10;99.90
60234;DHT22;49514;43.538;-5.708;2022-08-25T05:21:32;22.20;99.90
60234;DHT22;49514;43.538;-5.708;2022-08-25T05:24:00;22.20;99.90
60234;DHT22;49514;43.538;-5.708;2022-08-25T05:26:29;22.10;99.90
60234;DHT22;49514;43.538;-5.708;2022-08-25T05:29:00;22.20;99.90
60234;DHT22;49514;43.538;-5.708;2022-08-25T05:31:30;22.20;99.90
60234;DHT22;49514;43.538;-5.708;2022-08-25T05:33:58;22.20;99.90
60234;DHT22;49514;43.538;-5.708;2022-08-25T05:36:26;22.20;99.90
60234;DHT22;49514;43.538;-5.708;2022-08-25T05:38:53;22.20;99.90
60234;DHT22;49514;43.538;-5.708;2022-08-25T05:41:25;22.20;99.90
60234;DHT22;49514;43.538;-5.708;2022-08-25T05:43:52;22.20;99.90
60234;DHT22;49514;43.538;-5.708;2022-08-25T05:46:19;22.20;99.90
60234;DHT22;49514;43.538;-5.708;2022-08-25T05:48:47;22.20;99.90
60234;DHT22;49514;43.538;-5.708;2022-08-25T05:51:14;22.20;99.90
60234;DHT22;49514;43.538;-5.708;2022-08-25T05:53:43;22.20;99.90
60234;DHT22;49514;43.538;-5.708;2022-08-25T05:56:10;22.20;99.90
60234;DHT22;49514;43.538;-5.708;2022-08-25T05:58:40;22.20;99.90
60234;DHT22;49514;43.538;-5.708;2022-08-25T06:01:07;22.20;99.90
60234;DHT22;49514;43.538;-5.708;2022-08-25T06:03:53;22.20;99.90
60234;DHT22;49514;43.538;-5.708;2022-08-25T06:06:21;22.20;99.90
60234;DHT22;49514;43.538;-5.708;2022-08-25T06:08:48;22.10;99.90
60234;DHT22;49514;43.538;-5.708;2022-08-25T06:11:15;22.20;99.90
60234;DHT22;49514;43.538;-5.708;2022-08-25T06:13:42;22.10;99.90
60234;DHT22;49514;43.538;-5.708;2022-08-25T06:16:09;22.00;99.90
60234;DHT22;49514;43.538;-5.708;2022-08-25T06:18:35;22.10;99.90
60234;DHT22;49514;43.538;-5.708;2022-08-25T06:21:12;22.10;99.90
60234;DHT22;49514;43.538;-5.708;2022-08-25T06:23:40;22.00;99.90
60234;DHT22;49514;43.538;-5.708;2022-08-25T06:26:10;22.00;99.90
60234;DHT22;49514;43.538;-5.708;2022-08-25T06:28:37;22.00;99.90
60234;DHT22;49514;43.538;-5.708;2022-08-25T06:31:03;22.00;99.90
60234;DHT22;49514;43.538;-5.708;2022-08-25T06:33:30;22.00;99.90
60234;DHT22;49514;43.538;-5.708;2022-08-25T06:35:57;22.00;99.90
60234;DHT22;49514;43.538;-5.708;2022-08-25T06:38:25;22.00;99.90
60234;DHT22;49514;43.538;-5.708;2022-08-25T06:40:52;22.00;99.90
60234;DHT22;49514;43.538;-5.708;2022-08-25T06:43:20;22.00;99.90
60234;DHT22;49514;43.538;-5.708;2022-08-25T06:45:47;22.00;99.90
60234;DHT22;49514;43.538;-5.708;2022-08-25T06:48:14;22.00;99.90
60234;DHT22;49514;43.538;-5.708;2022-08-25T06:50:41;22.00;99.90
60234;DHT22;49514;43.538;-5.708;2022-08-25T06:53:08;22.00;99.90
60234;DHT22;49514;43.538;-5.708;2022-08-25T06:55:35;22.00;99.90
60234;DHT22;49514;43.538;-5.708;2022-08-25T06:58:03;22.00;99.90
60234;DHT22;49514;43.538;-5.708;2022-08-25T07:00:30;22.10;99.90
60234;DHT22;49514;43.538;-5.708;2022-08-25T07:02:57;22.20;99.90
60234;DHT22;49514;43.538;-5.708;2022-08-25T07:05:27;22.10;99.90
60234;DHT22;49514;43.538;-5.708;2022-08-25T07:07:54;22.20;99.90
60234;DHT22;49514;43.538;-5.708;2022-08-25T07:10:21;22.10;99.90
60234;DHT22;49514;43.538;-5.708;2022-08-25T07:12:48;22.20;99.90
60234;DHT22;49514;43.538;-5.708;2022-08-25T07:15:15;22.20;99.90
60234;DHT22;49514;43.538;-5.708;2022-08-25T07:17:42;22.30;99.90
60234;DHT22;49514;43.538;-5.708;2022-08-25T07:20:09;22.20;99.90
60234;DHT22;49514;43.538;-5.708;2022-08-25T07:22:36;22.20;99.90
60234;DHT22;49514;43.538;-5.708;2022-08-25T07:25:03;22.20;99.90
60234;DHT22;49514;43.538;-5.708;2022-08-25T07:27:30;22.30;99.90
60234;DHT22;49514;43.538;-5.708;2022-08-25T07:29:57;22.30;99.90
60234;DHT22;49514;43.538;-5.708;2022-08-25T07:32:24;22.20;99.90
60234;DHT22;49514;43.538;-5.708;2022-08-25T07:34:51;22.20;99.90
60234;DHT22;49514;43.538;-5.708;2022-08-25T07:37:39;22.20;99.90
60234;DHT22;49514;43.538;-5.708;2022-08-25T07:40:07;22.20;99.90
60234;DHT22;49514;43.538;-5.708;2022-08-25T07:42:34;22.20;99.90
60234;DHT22;49514;43.538;-5.708;2022-08-25T07:45:01;22.20;99.90
60234;DHT22;49514;43.538;-5.708;2022-08-25T07:47:29;22.20;99.90
60234;DHT22;49514;43.538;-5.708;2022-08-25T07:49:57;22.30;99.90
60234;DHT22;49514;43.538;-5.708;2022-08-25T07:52:24;22.20;99.90
60234;DHT22;49514;43.538;-5.708;2022-08-25T07:54:50;22.20;99.90
60234;DHT22;49514;43.538;-5.708;2022-08-25T07:57:20;22.30;99.90
60234;DHT22;49514;43.538;-5.708;2022-08-25T07:59:47;22.30;99.90
60234;DHT22;49514;43.538;-5.708;2022-08-25T08:02:14;22.30;99.90
60234;DHT22;49514;43.538;-5.708;2022-08-25T08:04:41;22.30;99.90
60234;DHT22;49514;43.538;-5.708;2022-08-25T08:07:11;22.20;99.90
60234;DHT22;49514;43.538;-5.708;2022-08-25T08:09:37;22.20;99.90
60234;DHT22;49514;43.538;-5.708;2022-08-25T08:12:05;22.30;99.90
60234;DHT22;49514;43.538;-5.708;2022-08-25T08:14:32;22.30;99.90
60234;DHT22;49514;43.538;-5.708;2022-08-25T08:17:04;22.20;99.90
60234;DHT22;49514;43.538;-5.708;2022-08-25T08:19:32;22.20;99.90
60234;DHT22;49514;43.538;-5.708;2022-08-25T08:22:00;22.30;99.90
60234;DHT22;49514;43.538;-5.708;2022-08-25T08:24:29;22.40;99.90
60234;DHT22;49514;43.538;-5.708;2022-08-25T08:26:56;22.50;99.90
60234;DHT22;49514;43.538;-5.708;2022-08-25T08:29:23;22.60;99.90
60234;DHT22;49514;43.538;-5.708;2022-08-25T08:31:50;22.70;99.90
60234;DHT22;49514;43.538;-5.708;2022-08-25T08:34:16;22.80;99.90
60234;DHT22;49514;43.538;-5.708;2022-08-25T08:36:43;22.80;99.90
60234;DHT22;49514;43.538;-5.708;2022-08-25T08:39:10;22.80;99.90
60234;DHT22;49514;43.538;-5.708;2022-08-25T08:41:45;22.80;99.90
60234;DHT22;49514;43.538;-5.708;2022-08-25T08:52:49;22.90;99.90
60234;DHT22;49514;43.538;-5.708;2022-08-25T08:55:31;23.00;99.90
60234;DHT22;49514;43.538;-5.708;2022-08-25T09:00:57;23.00;99.90
60234;DHT22;49514;43.538;-5.708;2022-08-25T09:03:35;22.90;99.90
60234;DHT22;49514;43.538;-5.708;2022-08-25T09:06:11;22.80;99.90
60234;DHT22;49514;43.538;-5.708;2022-08-25T09:08:40;22.80;99.90
60234;DHT22;49514;43.538;-5.708;2022-08-25T09:11:31;22.80;99.90
60234;DHT22;49514;43.538;-5.708;2022-08-25T09:28:32;22.90;99.90
60234;DHT22;49514;43.538;-5.708;2022-08-25T09:31:22;22.80;99.90
60234;DHT22;49514;43.538;-5.708;2022-08-25T09:33:53;22.80;99.90
60234;DHT22;49514;43.538;-5.708;2022-08-25T09:36:21;23.00;99.90
60234;DHT22;49514;43.538;-5.708;2022-08-25T09:38:49;23.00;99.90
60234;DHT22;49514;43.538;-5.708;2022-08-25T09:41:21;23.10;99.90
60234;DHT22;49514;43.538;-5.708;2022-08-25T09:44:00;23.10;99.90
60234;DHT22;49514;43.538;-5.708;2022-08-25T09:46:28;23.20;99.90
60234;DHT22;49514;43.538;-5.708;2022-08-25T09:48:57;23.20;99.90
60234;DHT22;49514;43.538;-5.708;2022-08-25T09:51:33;23.20;99.90
60234;DHT22;49514;43.538;-5.708;2022-08-25T09:54:20;23.30;99.90
60234;DHT22;49514;43.538;-5.708;2022-08-25T09:56:58;23.30;99.90
60234;DHT22;49514;43.538;-5.708;2022-08-25T10:02:00;23.30;99.90
60234;DHT22;49514;43.538;-5.708;2022-08-25T10:04:38;23.40;99.90
60234;DHT22;49514;43.538;-5.708;2022-08-25T10:07:27;23.50;99.90
60234;DHT22;49514;43.538;-5.708;2022-08-25T10:09:57;23.60;99.90
60234;DHT22;49514;43.538;-5.708;2022-08-25T10:12:37;23.60;99.90
60234;DHT22;49514;43.538;-5.708;2022-08-25T10:15:40;23.60;99.90
60234;DHT22;49514;43.538;-5.708;2022-08-25T10:18:23;23.60;99.90
60234;DHT22;49514;43.538;-5.708;2022-08-25T10:21:09;23.50;99.90
60234;DHT22;49514;43.538;-5.708;2022-08-25T10:23:40;23.60;99.90
60234;DHT22;49514;43.538;-5.708;2022-08-25T10:32:17;23.90;99.90
60234;DHT22;49514;43.538;-5.708;2022-08-25T10:34:55;23.70;99.90
60234;DHT22;49514;43.538;-5.708;2022-08-25T10:38:46;23.60;99.90
60234;DHT22;49514;43.538;-5.708;2022-08-25T10:40:44;23.70;99.90
60234;DHT22;49514;43.538;-5.708;2022-08-25T10:43:35;23.70;99.90
60234;DHT22;49514;43.538;-5.708;2022-08-25T10:54:19;23.70;99.90
60234;DHT22;49514;43.538;-5.708;2022-08-25T10:59:46;24.20;99.90
60234;DHT22;49514;43.538;-5.708;2022-08-25T11:05:32;24.40;99.90
60234;DHT22;49514;43.538;-5.708;2022-08-25T11:08:05;24.40;99.90
60234;DHT22;49514;43.538;-5.708;2022-08-25T11:10:59;24.30;99.90
60234;DHT22;49514;43.538;-5.708;2022-08-25T11:13:41;24.20;99.90
60234;DHT22;49514;43.538;-5.708;2022-08-25T11:16:16;24.20;99.90
60234;DHT22;49514;43.538;-5.708;2022-08-25T11:22:06;24.20;99.90
60234;DHT22;49514;43.538;-5.708;2022-08-25T11:24:51;24.20;99.90
60234;DHT22;49514;43.538;-5.708;2022-08-25T11:27:23;24.20;99.90
60234;DHT22;49514;43.538;-5.708;2022-08-25T11:30:12;24.20;99.90
60234;DHT22;49514;43.538;-5.708;2022-08-25T11:32:40;24.40;99.90
60234;DHT22;49514;43.538;-5.708;2022-08-25T11:35:12;24.60;99.90
60234;DHT22;49514;43.538;-5.708;2022-08-25T11:51:32;25.10;99.90
60234;DHT22;49514;43.538;-5.708;2022-08-25T11:54:41;25.40;99.90
60234;DHT22;49514;43.538;-5.708;2022-08-25T11:57:22;25.80;99.90
60234;DHT22;49514;43.538;-5.708;2022-08-25T12:02:37;25.90;99.90
60234;DHT22;49514;43.538;-5.708;2022-08-25T12:16:05;27.70;99.90
60234;DHT22;49514;43.538;-5.708;2022-08-25T12:29:29;29.20;99.90
60234;DHT22;49514;43.538;-5.708;2022-08-25T12:36:57;28.60;99.90
60234;DHT22;49514;43.538;-5.708;2022-08-25T12:39:28;28.30;99.90
60234;DHT22;49514;43.538;-5.708;2022-08-25T12:41:59;28.30;99.90
60234;DHT22;49514;43.538;-5.708;2022-08-25T12:44:40;28.30;99.90
60234;DHT22;49514;43.538;-5.708;2022-08-25T12:49:45;29.10;99.90
60234;DHT22;49514;43.538;-5.708;2022-08-25T12:52:14;30.00;99.90
60234;DHT22;49514;43.538;-5.708;2022-08-25T12:54:49;31.10;99.90
60234;DHT22;49514;43.538;-5.708;2022-08-25T12:57:37;32.10;99.90
60234;DHT22;49514;43.538;-5.708;2022-08-25T13:00:20;33.10;99.90
60234;DHT22;49514;43.538;-5.708;2022-08-25T13:03:15;33.30;99.90
60234;DHT22;49514;43.538;-5.708;2022-08-25T13:11:29;32.20;99.90
60234;DHT22;49514;43.538;-5.708;2022-08-25T13:14:04;31.80;99.90
60234;DHT22;49514;43.538;-5.708;2022-08-25T13:16:33;31.30;99.90
60234;DHT22;49514;43.538;-5.708;2022-08-25T13:19:02;30.70;99.90
60234;DHT22;49514;43.538;-5.708;2022-08-25T13:21:30;30.20;99.90
60234;DHT22;49514;43.538;-5.708;2022-08-25T13:23:59;29.90;99.90
60234;DHT22;49514;43.538;-5.708;2022-08-25T13:26:28;29.60;99.90
60234;DHT22;49514;43.538;-5.708;2022-08-25T13:29:00;29.70;99.90
60234;DHT22;49514;43.538;-5.708;2022-08-25T13:31:27;29.90;99.90
60234;DHT22;49514;43.538;-5.708;2022-08-25T13:33:56;30.40;99.90
60234;DHT22;49514;43.538;-5.708;2022-08-25T13:36:24;30.40;99.90
60234;DHT22;49514;43.538;-5.708;2022-08-25T13:39:11;30.40;99.90
60234;DHT22;49514;43.538;-5.708;2022-08-25T13:41:37;30.30;99.90
60234;DHT22;49514;43.538;-5.708;2022-08-25T13:44:08;30.10;99.90
60234;DHT22;49514;43.538;-5.708;2022-08-25T13:46:36;29.90;99.90
60234;DHT22;49514;43.538;-5.708;2022-08-25T13:49:04;29.70;99.90
60234;DHT22;49514;43.538;-5.708;2022-08-25T13:51:32;29.60;99.90
60234;DHT22;49514;43.538;-5.708;2022-08-25T13:54:00;29.60;99.90
60234;DHT22;49514;43.538;-5.708;2022-08-25T13:56:31;29.20;99.90
60234;DHT22;49514;43.538;-5.708;2022-08-25T13:58:58;29.10;99.90
60234;DHT22;49514;43.538;-5.708;2022-08-25T14:01:45;29.10;99.90
60234;DHT22;49514;43.538;-5.708;2022-08-25T14:04:19;29.00;99.90
60234;DHT22;49514;43.538;-5.708;2022-08-25T14:06:47;29.00;99.90
60234;DHT22;49514;43.538;-5.708;2022-08-25T14:09:15;29.30;99.90
60234;DHT22;49514;43.538;-5.708;2022-08-25T14:11:43;29.80;99.90
60234;DHT22;49514;43.538;-5.708;2022-08-25T14:19:16;29.90;99.90
60234;DHT22;49514;43.538;-5.708;2022-08-25T14:21:44;29.90;99.90
60234;DHT22;49514;43.538;-5.708;2022-08-25T14:24:13;29.80;99.90
60234;DHT22;49514;43.538;-5.708;2022-08-25T14:26:40;30.60;99.90
60234;DHT22;49514;43.538;-5.708;2022-08-25T14:29:07;32.20;99.90
60234;DHT22;49514;43.538;-5.708;2022-08-25T14:31:35;33.00;99.90
60234;DHT22;49514;43.538;-5.708;2022-08-25T14:34:05;32.80;99.90
60234;DHT22;49514;43.538;-5.708;2022-08-25T14:36:33;32.80;99.90
60234;DHT22;49514;43.538;-5.708;2022-08-25T14:39:00;32.60;99.90
60234;DHT22;49514;43.538;-5.708;2022-08-25T14:41:34;32.60;99.90
60234;DHT22;49514;43.538;-5.708;2022-08-25T14:44:01;32.90;98.90
60234;DHT22;49514;43.538;-5.708;2022-08-25T14:46:29;32.40;99.00
60234;DHT22;49514;43.538;-5.708;2022-08-25T14:49:00;32.20;99.50
60234;DHT22;49514;43.538;-5.708;2022-08-25T14:51:27;31.90;99.10
60234;DHT22;49514;43.538;-5.708;2022-08-25T14:53:56;31.40;99.90
60234;DHT22;49514;43.538;-5.708;2022-08-25T14:56:23;31.00;99.90
60234;DHT22;49514;43.538;-5.708;2022-08-25T14:58:50;30.70;99.90
60234;DHT22;49514;43.538;-5.708;2022-08-25T15:01:17;30.70;99.90
60234;DHT22;49514;43.538;-5.708;2022-08-25T15:03:45;30.90;99.90
60234;DHT22;49514;43.538;-5.708;2022-08-25T15:06:13;31.20;99.90
60234;DHT22;49514;43.538;-5.708;2022-08-25T15:08:40;31.40;99.90
60234;DHT22;49514;43.538;-5.708;2022-08-25T15:11:27;31.40;99.90
60234;DHT22;49514;43.538;-5.708;2022-08-25T15:13:54;31.00;99.90
60234;DHT22;49514;43.538;-5.708;2022-08-25T15:16:23;30.90;99.90
60234;DHT22;49514;43.538;-5.708;2022-08-25T15:18:50;30.40;99.90
60234;DHT22;49514;43.538;-5.708;2022-08-25T15:21:17;30.10;99.90
60234;DHT22;49514;43.538;-5.708;2022-08-25T15:23:43;29.70;99.90
60234;DHT22;49514;43.538;-5.708;2022-08-25T15:26:11;29.50;99.90
60234;DHT22;49514;43.538;-5.708;2022-08-25T15:28:38;29.50;99.90
60234;DHT22;49514;43.538;-5.708;2022-08-25T15:31:07;29.30;99.90
60234;DHT22;49514;43.538;-5.708;2022-08-25T15:33:33;28.70;99.90
60234;DHT22;49514;43.538;-5.708;2022-08-25T15:36:00;28.50;99.90
60234;DHT22;49514;43.538;-5.708;2022-08-25T15:38:27;28.30;99.90
60234;DHT22;49514;43.538;-5.708;2022-08-25T15:40:53;28.10;99.90
60234;DHT22;49514;43.538;-5.708;2022-08-25T15:43:20;28.00;99.90
60234;DHT22;49514;43.538;-5.708;2022-08-25T15:45:47;28.20;99.90
60234;DHT22;49514;43.538;-5.708;2022-08-25T15:48:14;28.20;99.90
60234;DHT22;49514;43.538;-5.708;2022-08-25T15:50:40;28.10;99.90
60234;DHT22;49514;43.538;-5.708;2022-08-25T15:55:36;27.80;99.90
60234;DHT22;49514;43.538;-5.708;2022-08-25T15:58:03;27.40;99.90
60234;DHT22;49514;43.538;-5.708;2022-08-25T16:00:29;27.20;99.90
60234;DHT22;49514;43.538;-5.708;2022-08-25T16:02:57;27.00;99.90
60234;DHT22;49514;43.538;-5.708;2022-08-25T16:07:50;26.80;99.90
60234;DHT22;49514;43.538;-5.708;2022-08-25T16:10:16;26.60;99.90
60234;DHT22;49514;43.538;-5.708;2022-08-25T16:12:43;26.60;99.90
60234;DHT22;49514;43.538;-5.708;2022-08-25T16:15:09;26.60;99.90
60234;DHT22;49514;43.538;-5.708;2022-08-25T16:17:36;26.70;99.90
60234;DHT22;49514;43.538;-5.708;2022-08-25T16:20:03;26.90;99.90
60234;DHT22;49514;43.538;-5.708;2022-08-25T16:22:29;27.10;99.90
60234;DHT22;49514;43.538;-5.708;2022-08-25T16:24:56;27.20;99.90
60234;DHT22;49514;43.538;-5.708;2022-08-25T16:27:22;27.30;99.90
60234;DHT22;49514;43.538;-5.708;2022-08-25T16:29:49;27.50;99.90
60234;DHT22;49514;43.538;-5.708;2022-08-25T16:32:15;27.60;99.90
60234;DHT22;49514;43.538;-5.708;2022-08-25T16:34:44;27.70;99.90
60234;DHT22;49514;43.538;-5.708;2022-08-25T16:37:10;27.70;99.90
60234;DHT22;49514;43.538;-5.708;2022-08-25T16:39:37;27.60;99.90
60234;DHT22;49514;43.538;-5.708;2022-08-25T16:42:09;27.40;99.90
60234;DHT22;49514;43.538;-5.708;2022-08-25T16:44:35;27.10;99.90
60234;DHT22;49514;43.538;-5.708;2022-08-25T16:47:02;27.00;99.90
60234;DHT22;49514;43.538;-5.708;2022-08-25T16:49:28;26.90;99.90
60234;DHT22;49514;43.538;-5.708;2022-08-25T16:51:56;26.80;99.90
60234;DHT22;49514;43.538;-5.708;2022-08-25T16:54:22;26.70;99.90
60234;DHT22;49514;43.538;-5.708;2022-08-25T16:57:07;26.40;99.90
60234;DHT22;49514;43.538;-5.708;2022-08-25T16:59:33;26.20;99.90
60234;DHT22;49514;43.538;-5.708;2022-08-25T17:02:00;26.10;99.90
60234;DHT22;49514;43.538;-5.708;2022-08-25T17:04:27;26.00;99.90
60234;DHT22;49514;43.538;-5.708;2022-08-25T17:09:20;25.90;99.90
60234;DHT22;49514;43.538;-5.708;2022-08-25T17:11:46;25.80;99.90
60234;DHT22;49514;43.538;-5.708;2022-08-25T17:14:14;25.60;99.90
60234;DHT22;49514;43.538;-5.708;2022-08-25T17:19:08;25.60;99.90
60234;DHT22;49514;43.538;-5.708;2022-08-25T17:21:38;25.40;99.90
60234;DHT22;49514;43.538;-5.708;2022-08-25T17:24:05;25.40;99.90
60234;DHT22;49514;43.538;-5.708;2022-08-25T17:26:32;25.20;99.90
60234;DHT22;49514;43.538;-5.708;2022-08-25T17:29:01;25.20;99.90
60234;DHT22;49514;43.538;-5.708;2022-08-25T17:31:28;25.10;99.90
60234;DHT22;49514;43.538;-5.708;2022-08-25T17:33:54;25.00;99.90